sensor_id;sensor_type;location;lat;lon;timestamp;pressure;altitude;pressure_sealevel;temperature;humidity
33496;BME280;19836;55.812;37.560;2023-10-08T00:50:25;96288.81;;;7.55;72.76
33496;BME280;19836;55.812;37.560;2023-10-08T00:54:38;96263.44;;;7.49;71.42
33496;BME280;19836;55.812;37.560;2023-10-08T00:57:57;96276.16;;;7.46;70.85
33496;BME280;19836;55.812;37.560;2023-10-08T01:00:51;96270.31;;;7.41;71.23
33496;BME280;19836;55.812;37.560;2023-10-08T01:03:22;96272.41;;;7.48;70.61
33496;BME280;19836;55.812;37.560;2023-10-08T01:05:48;96281.72;;;7.43;70.23
33496;BME280;19836;55.812;37.560;2023-10-08T01:08:15;96277.31;;;7.42;70.30
33496;BME280;19836;55.812;37.560;2023-10-08T01:10:58;96278.59;;;7.49;70.05
33496;BME280;19836;55.812;37.560;2023-10-08T01:13:30;96272.31;;;7.50;69.73
33496;BME280;19836;55.812;37.560;2023-10-08T01:16:01;96276.44;;;7.54;69.47
33496;BME280;19836;55.812;37.560;2023-10-08T01:18:30;96262.16;;;7.55;69.64
33496;BME280;19836;55.812;37.560;2023-10-08T01:21:09;96272.25;;;7.63;69.70
33496;BME280;19836;55.812;37.560;2023-10-08T01:23:57;96263.84;;;7.56;69.21
33496;BME280;19836;55.812;37.560;2023-10-08T01:26:26;96276.91;;;7.48;69.01
33496;BME280;19836;55.812;37.560;2023-10-08T01:28:55;96275.63;;;7.41;69.85
33496;BME280;19836;55.812;37.560;2023-10-08T01:31:21;96279.25;;;7.40;70.31
33496;BME280;19836;55.812;37.560;2023-10-08T01:33:47;96286.38;;;7.39;69.96
33496;BME280;19836;55.812;37.560;2023-10-08T01:36:16;96281.06;;;7.39;69.86
33496;BME280;19836;55.812;37.560;2023-10-08T01:38:43;96280.97;;;7.41;69.72
33496;BME280;19836;55.812;37.560;2023-10-08T01:41:15;96281.41;;;7.35;69.64
33496;BME280;19836;55.812;37.560;2023-10-08T01:44:31;96276.53;;;7.29;69.57
33496;BME280;19836;55.812;37.560;2023-10-08T01:47:21;96276.75;;;7.26;69.32
33496;BME280;19836;55.812;37.560;2023-10-08T01:50:01;96282.94;;;7.27;69.42
33496;BME280;19836;55.812;37.560;2023-10-08T01:53:14;96292.28;;;7.32;69.23
33496;BME280;19836;55.812;37.560;2023-10-08T01:55:44;96290.03;;;7.38;69.17
33496;BME280;19836;55.812;37.560;2023-10-08T01:58:23;96289.06;;;7.39;68.72
33496;BME280;19836;55.812;37.560;2023-10-08T02:00:49;96288.53;;;7.34;69.11
33496;BME280;19836;55.812;37.560;2023-10-08T02:03:18;96288.16;;;7.28;69.40
33496;BME280;19836;55.812;37.560;2023-10-08T02:05:45;96301.03;;;7.22;69.86
33496;BME280;19836;55.812;37.560;2023-10-08T02:08:13;96296.72;;;7.08;70.38
33496;BME280;19836;55.812;37.560;2023-10-08T02:10:40;96299.59;;;7.05;70.99
33496;BME280;19836;55.812;37.560;2023-10-08T02:13:09;96290.63;;;7.06;71.83
33496;BME280;19836;55.812;37.560;2023-10-08T02:15:49;96293.22;;;6.95;72.08
33496;BME280;19836;55.812;37.560;2023-10-08T02:19:11;96284.69;;;6.90;72.15
33496;BME280;19836;55.812;37.560;2023-10-08T02:22:08;96291.94;;;6.88;72.33
33496;BME280;19836;55.812;37.560;2023-10-08T02:31:03;96301.09;;;6.84;73.04
33496;BME280;19836;55.812;37.560;2023-10-08T02:33:30;96316.63;;;6.90;73.17
33496;BME280;19836;55.812;37.560;2023-10-08T02:36:05;96300.88;;;6.87;72.51
33496;BME280;19836;55.812;37.560;2023-10-08T02:42:35;96302.47;;;6.89;72.04
33496;BME280;19836;55.812;37.560;2023-10-08T02:45:28;96293.41;;;6.92;72.12
33496;BME280;19836;55.812;37.560;2023-10-08T02:48:27;96279.47;;;6.88;71.90
33496;BME280;19836;55.812;37.560;2023-10-08T02:55:10;96288.53;;;6.86;71.55
33496;BME280;19836;55.812;37.560;2023-10-08T02:58:12;96290.22;;;6.87;71.63
33496;BME280;19836;55.812;37.560;2023-10-08T03:00:46;96288.53;;;6.86;71.62
33496;BME280;19836;55.812;37.560;2023-10-08T03:03:17;96292.34;;;6.82;71.44
33496;BME280;19836;55.812;37.560;2023-10-08T03:05:46;96287.91;;;6.82;71.65
33496;BME280;19836;55.812;37.560;2023-10-08T03:08:15;96313.63;;;6.82;71.66
33496;BME280;19836;55.812;37.560;2023-10-08T03:10:50;96294.50;;;6.77;71.37
33496;BME280;19836;55.812;37.560;2023-10-08T03:13:29;96298.34;;;6.73;71.67
33496;BME280;19836;55.812;37.560;2023-10-08T03:16:40;96285.56;;;6.78;71.71
33496;BME280;19836;55.812;37.560;2023-10-08T03:19:07;96282.78;;;6.67;71.50
33496;BME280;19836;55.812;37.560;2023-10-08T03:22:16;96289.31;;;6.63;72.11
33496;BME280;19836;55.812;37.560;2023-10-08T03:25:06;96283.22;;;6.61;71.75
33496;BME280;19836;55.812;37.560;2023-10-08T03:27:41;96281.72;;;6.57;72.17
33496;BME280;19836;55.812;37.560;2023-10-08T03:30:08;96271.22;;;6.56;72.19
33496;BME280;19836;55.812;37.560;2023-10-08T03:32:43;96279.41;;;6.53;72.43
33496;BME280;19836;55.812;37.560;2023-10-08T03:35:27;96269.41;;;6.56;72.55
33496;BME280;19836;55.812;37.560;2023-10-08T03:38:03;96277.47;;;6.54;72.37
33496;BME280;19836;55.812;37.560;2023-10-08T03:40:46;96278.34;;;6.55;72.49
33496;BME280;19836;55.812;37.560;2023-10-08T03:43:15;96277.47;;;6.54;72.73
33496;BME280;19836;55.812;37.560;2023-10-08T03:45:49;96286.41;;;6.53;72.32
33496;BME280;19836;55.812;37.560;2023-10-08T03:48:34;96272.69;;;6.47;72.28
33496;BME280;19836;55.812;37.560;2023-10-08T03:51:31;96277.28;;;6.45;72.18
33496;BME280;19836;55.812;37.560;2023-10-08T03:54:08;96274.81;;;6.42;72.61
33496;BME280;19836;55.812;37.560;2023-10-08T03:56:46;96280.91;;;6.44;72.93
33496;BME280;19836;55.812;37.560;2023-10-08T03:59:23;96277.28;;;6.45;73.02
33496;BME280;19836;55.812;37.560;2023-10-08T04:02:27;96285.69;;;6.52;72.70
33496;BME280;19836;55.812;37.560;2023-10-08T04:05:08;96290.66;;;6.56;72.39
33496;BME280;19836;55.812;37.560;2023-10-08T04:07:56;96283.47;;;6.58;72.23
33496;BME280;19836;55.812;37.560;2023-10-08T04:10:27;96281.00;;;6.55;72.28
33496;BME280;19836;55.812;37.560;2023-10-08T04:13:05;96283.31;;;6.47;72.26
33496;BME280;19836;55.812;37.560;2023-10-08T04:15:37;96286.19;;;6.32;72.67
33496;BME280;19836;55.812;37.560;2023-10-08T04:18:07;96283.22;;;6.23;73.24
33496;BME280;19836;55.812;37.560;2023-10-08T04:20:34;96282.91;;;6.28;73.65
33496;BME280;19836;55.812;37.560;2023-10-08T04:23:07;96275.66;;;6.30;73.55
33496;BME280;19836;55.812;37.560;2023-10-08T04:25:40;96285.56;;;6.28;73.93
33496;BME280;19836;55.812;37.560;2023-10-08T04:28:08;96272.69;;;6.22;73.87
33496;BME280;19836;55.812;37.560;2023-10-08T04:30:40;96284.50;;;6.18;74.45
33496;BME280;19836;55.812;37.560;2023-10-08T04:33:08;96287.88;;;6.20;74.46
33496;BME280;19836;55.812;37.560;2023-10-08T04:35:39;96282.47;;;6.22;74.86
33496;BME280;19836;55.812;37.560;2023-10-08T04:38:15;96291.28;;;6.22;75.00
33496;BME280;19836;55.812;37.560;2023-10-08T04:40:44;96288.31;;;6.27;74.88
33496;BME280;19836;55.812;37.560;2023-10-08T04:43:18;96298.97;;;6.27;74.93
33496;BME280;19836;55.812;37.560;2023-10-08T04:46:08;96295.34;;;6.28;74.86
33496;BME280;19836;55.812;37.560;2023-10-08T04:49:00;96282.38;;;6.36;74.64
33496;BME280;19836;55.812;37.560;2023-10-08T04:51:31;96302.06;;;6.33;74.46
33496;BME280;19836;55.812;37.560;2023-10-08T04:54:05;96295.97;;;6.31;74.05
33496;BME280;19836;55.812;37.560;2023-10-08T04:56:31;96308.31;;;6.32;73.82
33496;BME280;19836;55.812;37.560;2023-10-08T04:58:58;96304.91;;;6.30;73.79
33496;BME280;19836;55.812;37.560;2023-10-08T05:01:24;96294.38;;;6.28;73.43
33496;BME280;19836;55.812;37.560;2023-10-08T05:04:25;96303.41;;;6.26;73.43
33496;BME280;19836;55.812;37.560;2023-10-08T05:07:11;96319.16;;;6.29;73.68
33496;BME280;19836;55.812;37.560;2023-10-08T05:09:47;96314.81;;;6.28;73.71
33496;BME280;19836;55.812;37.560;2023-10-08T05:12:18;96301.38;;;6.29;73.50
33496;BME280;19836;55.812;37.560;2023-10-08T05:15:06;96312.53;;;6.22;73.52
33496;BME280;19836;55.812;37.560;2023-10-08T05:18:08;96308.25;;;6.07;73.41
33496;BME280;19836;55.812;37.560;2023-10-08T05:20:43;96311.13;;;6.04;73.98
33496;BME280;19836;55.812;37.560;2023-10-08T05:23:17;96319.31;;;6.01;74.49
33496;BME280;19836;55.812;37.560;2023-10-08T05:25:58;96314.63;;;6.04;74.65
33496;BME280;19836;55.812;37.560;2023-10-08T05:28:33;96314.44;;;6.07;74.94
33496;BME280;19836;55.812;37.560;2023-10-08T05:31:14;96302.31;;;6.16;75.11
33496;BME280;19836;55.812;37.560;2023-10-08T05:33:42;96313.84;;;6.29;74.92
33496;BME280;19836;55.812;37.560;2023-10-08T05:36:26;96301.53;;;6.41;74.60
33496;BME280;19836;55.812;37.560;2023-10-08T05:39:18;96316.00;;;6.49;74.65
33496;BME280;19836;55.812;37.560;2023-10-08T05:41:50;96300.69;;;6.53;73.67
33496;BME280;19836;55.812;37.560;2023-10-08T05:44:34;96308.56;;;6.54;73.21
33496;BME280;19836;55.812;37.560;2023-10-08T05:47:14;96303.00;;;6.57;72.69
33496;BME280;19836;55.812;37.560;2023-10-08T05:49:58;96308.84;;;6.49;71.89
33496;BME280;19836;55.812;37.560;2023-10-08T05:52:43;96304.41;;;6.50;72.11
33496;BME280;19836;55.812;37.560;2023-10-08T05:55:19;96317.59;;;6.52;71.54
33496;BME280;19836;55.812;37.560;2023-10-08T05:58:01;96310.69;;;6.62;71.45
33496;BME280;19836;55.812;37.560;2023-10-08T06:00:43;96314.72;;;6.67;70.98
33496;BME280;19836;55.812;37.560;2023-10-08T06:03:29;96320.69;;;6.71;70.63
33496;BME280;19836;55.812;37.560;2023-10-08T06:05:59;96324.19;;;6.71;70.49
33496;BME280;19836;55.812;37.560;2023-10-08T06:08:49;96307.59;;;6.68;70.09
33496;BME280;19836;55.812;37.560;2023-10-08T06:11:36;96315.47;;;6.69;69.63
33496;BME280;19836;55.812;37.560;2023-10-08T06:14:22;96319.81;;;6.70;69.23
33496;BME280;19836;55.812;37.560;2023-10-08T06:17:15;96332.16;;;6.71;69.19
33496;BME280;19836;55.812;37.560;2023-10-08T06:20:03;96312.38;;;6.75;69.16
33496;BME280;19836;55.812;37.560;2023-10-08T06:22:42;96324.28;;;6.82;69.02
33496;BME280;19836;55.812;37.560;2023-10-08T06:25:09;96334.00;;;6.83;68.75
33496;BME280;19836;55.812;37.560;2023-10-08T06:27:43;96333.03;;;6.84;68.46
33496;BME280;19836;55.812;37.560;2023-10-08T06:30:13;96336.00;;;6.79;68.60
33496;BME280;19836;55.812;37.560;2023-10-08T06:32:43;96330.03;;;6.76;68.30
33496;BME280;19836;55.812;37.560;2023-10-08T06:35:11;96332.16;;;6.71;68.47
33496;BME280;19836;55.812;37.560;2023-10-08T06:37:47;96333.31;;;6.67;68.48
33496;BME280;19836;55.812;37.560;2023-10-08T06:40:21;96344.09;;;6.66;69.07
33496;BME280;19836;55.812;37.560;2023-10-08T06:43:13;96334.91;;;6.69;68.54
33496;BME280;19836;55.812;37.560;2023-10-08T06:45:44;96338.25;;;6.73;68.60
33496;BME280;19836;55.812;37.560;2023-10-08T06:48:10;96340.03;;;6.85;68.46
33496;BME280;19836;55.812;37.560;2023-10-08T06:50:44;96321.31;;;6.99;68.75
33496;BME280;19836;55.812;37.560;2023-10-08T06:53:11;96338.78;;;7.03;68.29
33496;BME280;19836;55.812;37.560;2023-10-08T06:55:40;96338.63;;;7.04;67.63
33496;BME280;19836;55.812;37.560;2023-10-08T06:58:07;96337.28;;;6.99;67.28
33496;BME280;19836;55.812;37.560;2023-10-08T07:00:43;96344.41;;;6.86;67.21
33496;BME280;19836;55.812;37.560;2023-10-08T07:03:13;96344.72;;;6.82;67.72
33496;BME280;19836;55.812;37.560;2023-10-08T07:05:44;96349.72;;;6.86;67.53
33496;BME280;19836;55.812;37.560;2023-10-08T07:08:23;96347.16;;;6.72;67.76
33496;BME280;19836;55.812;37.560;2023-10-08T07:10:53;96342.59;;;6.62;67.44
33496;BME280;19836;55.812;37.560;2023-10-08T07:13:34;96358.09;;;6.43;67.47
33496;BME280;19836;55.812;37.560;2023-10-08T07:19:01;96357.78;;;6.47;68.19
33496;BME280;19836;55.812;37.560;2023-10-08T07:31:01;96371.53;;;6.66;66.24
33496;BME280;19836;55.812;37.560;2023-10-08T07:33:50;96359.91;;;6.54;66.43
33496;BME280;19836;55.812;37.560;2023-10-08T07:36:32;96372.13;;;6.57;66.19
33496;BME280;19836;55.812;37.560;2023-10-08T07:38:58;96360.78;;;6.68;66.17
33496;BME280;19836;55.812;37.560;2023-10-08T07:41:25;96361.66;;;6.81;65.98
33496;BME280;19836;55.812;37.560;2023-10-08T07:43:51;96366.22;;;6.78;65.46
33496;BME280;19836;55.812;37.560;2023-10-08T07:46:25;96356.34;;;6.81;65.65
33496;BME280;19836;55.812;37.560;2023-10-08T07:55:10;96366.75;;;6.96;65.40
33496;BME280;19836;55.812;37.560;2023-10-08T07:57:43;96368.88;;;6.78;65.07
33496;BME280;19836;55.812;37.560;2023-10-08T08:00:43;96381.63;;;6.73;65.14
33496;BME280;19836;55.812;37.560;2023-10-08T08:07:44;96393.88;;;6.88;65.68
33496;BME280;19836;55.812;37.560;2023-10-08T08:10:19;96380.38;;;6.92;65.20
33496;BME280;19836;55.812;37.560;2023-10-08T08:15:48;96393.69;;;6.92;64.52
33496;BME280;19836;55.812;37.560;2023-10-08T08:18:17;96393.59;;;7.06;64.37
33496;BME280;19836;55.812;37.560;2023-10-08T08:20:52;96391.03;;;7.04;63.37
33496;BME280;19836;55.812;37.560;2023-10-08T08:23:18;96396.13;;;7.07;63.37
33496;BME280;19836;55.812;37.560;2023-10-08T08:26:16;96390.38;;;7.26;63.42
33496;BME280;19836;55.812;37.560;2023-10-08T08:51:34;96411.34;;;7.05;61.64
33496;BME280;19836;55.812;37.560;2023-10-08T08:54:28;96418.81;;;7.00;62.05
33496;BME280;19836;55.812;37.560;2023-10-08T08:57:23;96436.28;;;7.04;62.28
33496;BME280;19836;55.812;37.560;2023-10-08T09:08:18;96431.38;;;6.86;62.88
33496;BME280;19836;55.812;37.560;2023-10-08T09:23:14;96444.75;;;6.84;64.88
33496;BME280;19836;55.812;37.560;2023-10-08T09:30:52;96447.44;;;7.09;64.26
33496;BME280;19836;55.812;37.560;2023-10-08T09:33:28;96448.28;;;7.09;63.64
33496;BME280;19836;55.812;37.560;2023-10-08T09:45:53;96436.91;;;7.45;62.04
33496;BME280;19836;55.812;37.560;2023-10-08T09:48:30;96445.09;;;7.42;61.88
33496;BME280;19836;55.812;37.560;2023-10-08T09:51:23;96450.31;;;7.31;61.53
33496;BME280;19836;55.812;37.560;2023-10-08T10:01:16;96457.56;;;7.54;61.46
33496;BME280;19836;55.812;37.560;2023-10-08T10:03:44;96452.44;;;7.51;61.55
33496;BME280;19836;55.812;37.560;2023-10-08T10:06:15;96443.81;;;7.47;61.17
33496;BME280;19836;55.812;37.560;2023-10-08T10:08:44;96443.81;;;7.35;61.69
33496;BME280;19836;55.812;37.560;2023-10-08T10:11:11;96445.44;;;7.13;61.93
33496;BME280;19836;55.812;37.560;2023-10-08T10:14:03;96450.81;;;6.86;62.58
33496;BME280;19836;55.812;37.560;2023-10-08T10:16:36;96471.25;;;6.73;63.26
33496;BME280;19836;55.812;37.560;2023-10-08T10:26:33;96471.41;;;6.31;64.56
33496;BME280;19836;55.812;37.560;2023-10-08T10:36:07;96499.97;;;5.87;67.91
33496;BME280;19836;55.812;37.560;2023-10-08T10:54:15;96515.53;;;5.51;71.77
33496;BME280;19836;55.812;37.560;2023-10-08T12:01:07;96524.53;;;4.91;80.73
33496;BME280;19836;55.812;37.560;2023-10-08T12:03:54;96517.91;;;4.84;80.38
33496;BME280;19836;55.812;37.560;2023-10-08T12:07:10;96517.44;;;4.91;81.27
33496;BME280;19836;55.812;37.560;2023-10-08T12:09:40;96533.78;;;4.99;81.31
33496;BME280;19836;55.812;37.560;2023-10-08T12:12:07;96527.50;;;5.00;81.42
33496;BME280;19836;55.812;37.560;2023-10-08T12:14:36;96521.91;;;5.05;81.38
33496;BME280;19836;55.812;37.560;2023-10-08T12:17:04;96512.25;;;5.04;81.34
33496;BME280;19836;55.812;37.560;2023-10-08T12:19:37;96516.25;;;4.97;81.25
33496;BME280;19836;55.812;37.560;2023-10-08T12:22:31;96530.03;;;4.88;81.01
33496;BME280;19836;55.812;37.560;2023-10-08T12:25:02;96521.94;;;4.75;81.10
33496;BME280;19836;55.812;37.560;2023-10-08T12:28:18;96539.63;;;4.75;81.56
33496;BME280;19836;55.812;37.560;2023-10-08T12:30:45;96530.94;;;4.73;81.88
33496;BME280;19836;55.812;37.560;2023-10-08T12:33:11;96535.97;;;4.77;82.34
33496;BME280;19836;55.812;37.560;2023-10-08T12:35:43;96518.25;;;4.78;82.18
33496;BME280;19836;55.812;37.560;2023-10-08T12:38:10;96524.22;;;4.81;82.54
33496;BME280;19836;55.812;37.560;2023-10-08T12:40:36;96535.88;;;4.79;82.10
33496;BME280;19836;55.812;37.560;2023-10-08T12:43:35;96530.75;;;4.76;82.32
33496;BME280;19836;55.812;37.560;2023-10-08T12:46:42;96533.13;;;4.80;82.69
33496;BME280;19836;55.812;37.560;2023-10-08T12:50:19;96527.16;;;4.77;82.68
33496;BME280;19836;55.812;37.560;2023-10-08T12:53:04;96532.06;;;4.69;82.49
33496;BME280;19836;55.812;37.560;2023-10-08T12:55:31;96522.91;;;4.59;82.64
33496;BME280;19836;55.812;37.560;2023-10-08T12:57:57;96519.31;;;4.60;82.80
33496;BME280;19836;55.812;37.560;2023-10-08T13:00:32;96525.06;;;4.52;82.87
33496;BME280;19836;55.812;37.560;2023-10-08T13:03:24;96520.03;;;4.48;82.92
33496;BME280;19836;55.812;37.560;2023-10-08T13:06:05;96527.22;;;4.46;83.59
33496;BME280;19836;55.812;37.560;2023-10-08T13:08:32;96524.84;;;4.41;83.84
33496;BME280;19836;55.812;37.560;2023-10-08T13:30:08;96522.53;;;4.20;84.62
33496;BME280;19836;55.812;37.560;2023-10-08T13:33:22;96533.06;;;4.21;84.72
33496;BME280;19836;55.812;37.560;2023-10-08T14:35:43;96544.84;;;3.85;86.92
33496;BME280;19836;55.812;37.560;2023-10-08T14:38:53;96544.50;;;3.75;86.72
33496;BME280;19836;55.812;37.560;2023-10-08T14:41:54;96540.38;;;3.70;86.77
33496;BME280;19836;55.812;37.560;2023-10-08T14:44:42;96545.34;;;3.76;87.06
33496;BME280;19836;55.812;37.560;2023-10-08T14:47:08;96541.94;;;3.74;87.11
33496;BME280;19836;55.812;37.560;2023-10-08T14:49:47;96542.88;;;3.73;87.08
33496;BME280;19836;55.812;37.560;2023-10-08T14:52:18;96550.44;;;3.63;87.02
33496;BME280;19836;55.812;37.560;2023-10-08T14:54:47;96547.91;;;3.62;87.02
33496;BME280;19836;55.812;37.560;2023-10-08T14:57:18;96543.22;;;3.67;87.47
33496;BME280;19836;55.812;37.560;2023-10-08T14:59:45;96546.47;;;3.72;87.62
33496;BME280;19836;55.812;37.560;2023-10-08T15:05:51;96555.22;;;3.72;87.66
33496;BME280;19836;55.812;37.560;2023-10-08T15:08:23;96558.16;;;3.68;87.69
33496;BME280;19836;55.812;37.560;2023-10-08T15:11:23;96558.28;;;3.65;87.50
33496;BME280;19836;55.812;37.560;2023-10-08T17:22:31;96618.88;;;3.54;86.97
33496;BME280;19836;55.812;37.560;2023-10-08T17:24:57;96620.59;;;3.55;86.83
33496;BME280;19836;55.812;37.560;2023-10-08T17:27:48;96623.25;;;3.55;87.02
33496;BME280;19836;55.812;37.560;2023-10-08T18:51:07;96671.03;;;3.69;86.93
33496;BME280;19836;55.812;37.560;2023-10-08T18:53:35;96677.41;;;3.65;87.14
33496;BME280;19836;55.812;37.560;2023-10-08T18:56:32;96675.53;;;3.67;87.10
33496;BME280;19836;55.812;37.560;2023-10-08T18:59:07;96678.00;;;3.70;87.28
33496;BME280;19836;55.812;37.560;2023-10-08T19:01:37;96689.41;;;3.72;87.11
33496;BME280;19836;55.812;37.560;2023-10-08T19:50:48;96739.75;;;3.87;87.25
33496;BME280;19836;55.812;37.560;2023-10-08T21:33:50;96878.59;;;3.82;86.43
33496;BME280;19836;55.812;37.560;2023-10-08T21:38:10;96876.88;;;3.81;86.11
33496;BME280;19836;55.812;37.560;2023-10-08T22:42:13;96959.75;;;3.83;85.71
33496;BME280;19836;55.812;37.560;2023-10-08T22:45:59;96958.75;;;3.85;85.52
33496;BME280;19836;55.812;37.560;2023-10-08T22:50:15;96970.16;;;3.86;85.52
33496;BME280;19836;55.812;37.560;2023-10-08T22:53:45;96967.63;;;3.84;85.32
